sensor_id;sensor_type;location;lat;lon;timestamp;pressure;altitude;pressure_sealevel;temperature;humidity
49841;BME280;35738;49.890;5.930;2023-02-14T00:00:47;97411.56;;;4.36;95.42
49841;BME280;35738;49.890;5.930;2023-02-14T00:03:13;97413.22;;;4.37;94.63
49841;BME280;35738;49.890;5.930;2023-02-14T00:05:40;97415.19;;;4.41;94.80
49841;BME280;35738;49.890;5.930;2023-02-14T00:08:07;97411.63;;;4.41;94.58
49841;BME280;35738;49.890;5.930;2023-02-14T00:10:33;97414.09;;;4.42;94.42
49841;BME280;35738;49.890;5.930;2023-02-14T00:13:00;97417.66;;;4.43;94.03
49841;BME280;35738;49.890;5.930;2023-02-14T00:15:27;97414.69;;;4.44;94.16
49841;BME280;35738;49.890;5.930;2023-02-14T00:17:55;97419.09;;;4.29;94.93
49841;BME280;35738;49.890;5.930;2023-02-14T00:20:26;97408.41;;;4.22;95.74
49841;BME280;35738;49.890;5.930;2023-02-14T00:22:53;97417.63;;;4.21;95.87
49841;BME280;35738;49.890;5.930;2023-02-14T00:25:20;97401.56;;;4.20;96.14
49841;BME280;35738;49.890;5.930;2023-02-14T00:27:47;97394.53;;;4.24;95.50
49841;BME280;35738;49.890;5.930;2023-02-14T00:30:13;97403.78;;;4.23;95.40
49841;BME280;35738;49.890;5.930;2023-02-14T00:32:41;97403.19;;;4.21;95.63
49841;BME280;35738;49.890;5.930;2023-02-14T00:35:08;97400.97;;;4.18;94.84
49841;BME280;35738;49.890;5.930;2023-02-14T00:37:36;97406.28;;;4.07;95.78
49841;BME280;35738;49.890;5.930;2023-02-14T00:40:03;97396.72;;;4.05;95.70
49841;BME280;35738;49.890;5.930;2023-02-14T00:42:31;97391.09;;;4.11;95.77
49841;BME280;35738;49.890;5.930;2023-02-14T00:44:57;97387.16;;;4.02;95.89
49841;BME280;35738;49.890;5.930;2023-02-14T00:47:24;97389.38;;;4.05;95.79
49841;BME280;35738;49.890;5.930;2023-02-14T00:49:51;97408.75;;;4.09;95.54
49841;BME280;35738;49.890;5.930;2023-02-14T00:52:17;97406.03;;;4.09;95.64
49841;BME280;35738;49.890;5.930;2023-02-14T00:54:44;97403.56;;;4.07;94.91
49841;BME280;35738;49.890;5.930;2023-02-14T00:57:11;97406.34;;;4.12;94.73
49841;BME280;35738;49.890;5.930;2023-02-14T00:59:37;97400.00;;;4.07;95.12
49841;BME280;35738;49.890;5.930;2023-02-14T01:02:04;97398.03;;;4.02;94.83
49841;BME280;35738;49.890;5.930;2023-02-14T01:04:31;97393.00;;;4.11;94.53
49841;BME280;35738;49.890;5.930;2023-02-14T01:06:57;97395.41;;;4.07;94.86
49841;BME280;35738;49.890;5.930;2023-02-14T01:09:24;97399.44;;;4.05;95.65
49841;BME280;35738;49.890;5.930;2023-02-14T01:11:51;97399.03;;;3.96;95.28
49841;BME280;35738;49.890;5.930;2023-02-14T01:14:17;97396.06;;;3.98;95.73
49841;BME280;35738;49.890;5.930;2023-02-14T01:16:44;97399.03;;;3.96;96.08
49841;BME280;35738;49.890;5.930;2023-02-14T01:19:11;97386.00;;;3.98;96.40
49841;BME280;35738;49.890;5.930;2023-02-14T01:21:37;97390.06;;;3.96;95.32
49841;BME280;35738;49.890;5.930;2023-02-14T01:24:06;97386.94;;;3.87;95.32
49841;BME280;35738;49.890;5.930;2023-02-14T01:26:34;97382.66;;;3.91;95.80
49841;BME280;35738;49.890;5.930;2023-02-14T01:29:02;97385.38;;;3.91;95.74
49841;BME280;35738;49.890;5.930;2023-02-14T01:31:31;97387.84;;;3.93;95.87
49841;BME280;35738;49.890;5.930;2023-02-14T01:33:58;97384.88;;;3.94;95.90
49841;BME280;35738;49.890;5.930;2023-02-14T01:36:31;97377.19;;;3.91;96.14
49841;BME280;35738;49.890;5.930;2023-02-14T01:39:01;97380.94;;;3.85;95.90
49841;BME280;35738;49.890;5.930;2023-02-14T01:41:31;97379.28;;;3.84;96.62
49841;BME280;35738;49.890;5.930;2023-02-14T01:46:26;97382.00;;;3.84;96.97
49841;BME280;35738;49.890;5.930;2023-02-14T01:48:59;97383.00;;;3.78;96.77
49841;BME280;35738;49.890;5.930;2023-02-14T01:51:27;97381.59;;;3.75;96.90
49841;BME280;35738;49.890;5.930;2023-02-14T01:53:55;97380.78;;;3.75;96.91
49841;BME280;35738;49.890;5.930;2023-02-14T01:56:29;97379.38;;;3.72;97.15
49841;BME280;35738;49.890;5.930;2023-02-14T01:59:01;97371.69;;;3.69;97.55
49841;BME280;35738;49.890;5.930;2023-02-14T02:01:30;97373.50;;;3.64;97.88
49841;BME280;35738;49.890;5.930;2023-02-14T02:04:01;97368.72;;;3.71;97.95
49841;BME280;35738;49.890;5.930;2023-02-14T02:06:35;97375.84;;;3.72;97.67
49841;BME280;35738;49.890;5.930;2023-02-14T02:09:11;97369.22;;;3.68;97.85
49841;BME280;35738;49.890;5.930;2023-02-14T02:11:40;97364.19;;;3.60;98.61
49841;BME280;35738;49.890;5.930;2023-02-14T02:14:16;97364.28;;;3.65;98.02
49841;BME280;35738;49.890;5.930;2023-02-14T02:30:07;97360.25;;;3.50;98.36
49841;BME280;35738;49.890;5.930;2023-02-14T02:33:12;97354.22;;;3.48;98.90
49841;BME280;35738;49.890;5.930;2023-02-14T02:47:03;97348.53;;;3.33;100.00
49841;BME280;35738;49.890;5.930;2023-02-14T02:49:40;97346.81;;;3.27;100.00
49841;BME280;35738;49.890;5.930;2023-02-14T02:53:05;97352.41;;;3.21;100.00
49841;BME280;35738;49.890;5.930;2023-02-14T02:58:33;97349.03;;;3.30;100.00
49841;BME280;35738;49.890;5.930;2023-02-14T03:01:05;97348.22;;;3.30;100.00
49841;BME280;35738;49.890;5.930;2023-02-14T03:03:34;97348.97;;;3.25;100.00
49841;BME280;35738;49.890;5.930;2023-02-14T03:06:20;97346.81;;;3.27;100.00
49841;BME280;35738;49.890;5.930;2023-02-14T03:08:46;97351.75;;;3.30;100.00
49841;BME280;35738;49.890;5.930;2023-02-14T03:11:13;97350.38;;;3.28;100.00
49841;BME280;35738;49.890;5.930;2023-02-14T03:13:55;97354.47;;;3.30;100.00
49841;BME280;35738;49.890;5.930;2023-02-14T03:19:16;97351.03;;;3.18;100.00
49841;BME280;35738;49.890;5.930;2023-02-14T03:22:24;97347.16;;;3.14;100.00
49841;BME280;35738;49.890;5.930;2023-02-14T03:27:34;97343.84;;;3.12;100.00
49841;BME280;35738;49.890;5.930;2023-02-14T03:30:12;97338.25;;;3.02;100.00
49841;BME280;35738;49.890;5.930;2023-02-14T03:32:46;97335.38;;;3.08;100.00
49841;BME280;35738;49.890;5.930;2023-02-14T03:35:33;97342.13;;;3.06;100.00
49841;BME280;35738;49.890;5.930;2023-02-14T03:38:23;97337.09;;;2.98;100.00
49841;BME280;35738;49.890;5.930;2023-02-14T03:41:09;97338.09;;;3.08;100.00
49841;BME280;35738;49.890;5.930;2023-02-14T03:43:56;97337.41;;;3.01;100.00
49841;BME280;35738;49.890;5.930;2023-02-14T03:46:25;97336.34;;;3.02;100.00
49841;BME280;35738;49.890;5.930;2023-02-14T03:48:57;97340.22;;;3.06;100.00
49841;BME280;35738;49.890;5.930;2023-02-14T03:51:26;97328.03;;;3.09;100.00
49841;BME280;35738;49.890;5.930;2023-02-14T03:54:00;97331.50;;;3.04;100.00
49841;BME280;35738;49.890;5.930;2023-02-14T03:56:41;97329.03;;;3.03;100.00
49841;BME280;35738;49.890;5.930;2023-02-14T03:59:28;97326.31;;;3.03;100.00
49841;BME280;35738;49.890;5.930;2023-02-14T04:02:17;97337.25;;;3.08;100.00
49841;BME280;35738;49.890;5.930;2023-02-14T04:04:48;97336.94;;;3.04;100.00
49841;BME280;35738;49.890;5.930;2023-02-14T04:07:19;97334.44;;;3.03;100.00
49841;BME280;35738;49.890;5.930;2023-02-14T04:09:47;97334.94;;;3.00;100.00
49841;BME280;35738;49.890;5.930;2023-02-14T04:12:15;97336.59;;;3.01;100.00
49841;BME280;35738;49.890;5.930;2023-02-14T04:14:49;97338.25;;;3.02;100.00
49841;BME280;35738;49.890;5.930;2023-02-14T04:17:15;97332.47;;;2.98;100.00
49841;BME280;35738;49.890;5.930;2023-02-14T04:20:00;97338.13;;;2.97;100.00
49841;BME280;35738;49.890;5.930;2023-02-14T04:22:27;97339.31;;;3.01;100.00
49841;BME280;35738;49.890;5.930;2023-02-14T04:24:53;97336.47;;;2.96;100.00
49841;BME280;35738;49.890;5.930;2023-02-14T04:27:20;97340.00;;;2.96;100.00
49841;BME280;35738;49.890;5.930;2023-02-14T04:29:48;97338.03;;;2.92;100.00
49841;BME280;35738;49.890;5.930;2023-02-14T04:32:20;97347.84;;;2.93;100.00
49841;BME280;35738;49.890;5.930;2023-02-14T04:34:47;97347.75;;;2.87;100.00
49841;BME280;35738;49.890;5.930;2023-02-14T04:37:15;97345.03;;;2.87;100.00
49841;BME280;35738;49.890;5.930;2023-02-14T04:39:43;97333.91;;;2.89;100.00
49841;BME280;35738;49.890;5.930;2023-02-14T04:42:11;97340.91;;;2.85;100.00
49841;BME280;35738;49.890;5.930;2023-02-14T04:44:37;97338.19;;;2.85;100.00
49841;BME280;35738;49.890;5.930;2023-02-14T04:47:05;97343.97;;;2.88;100.00
49841;BME280;35738;49.890;5.930;2023-02-14T04:49:32;97338.03;;;2.92;100.00
49841;BME280;35738;49.890;5.930;2023-02-14T04:51:59;97336.88;;;2.87;100.00
49841;BME280;35738;49.890;5.930;2023-02-14T04:54:26;97342.31;;;2.87;100.00
49841;BME280;35738;49.890;5.930;2023-02-14T04:56:52;97343.38;;;2.86;100.00
49841;BME280;35738;49.890;5.930;2023-02-14T04:59:19;97339.00;;;2.85;100.00
49841;BME280;35738;49.890;5.930;2023-02-14T05:01:46;97334.06;;;2.82;100.00
49841;BME280;35738;49.890;5.930;2023-02-14T05:04:12;97327.16;;;2.75;100.00
49841;BME280;35738;49.890;5.930;2023-02-14T05:06:39;97333.31;;;2.70;100.00
49841;BME280;35738;49.890;5.930;2023-02-14T05:09:06;97326.81;;;2.71;100.00
49841;BME280;35738;49.890;5.930;2023-02-14T05:11:33;97323.13;;;2.77;100.00
49841;BME280;35738;49.890;5.930;2023-02-14T05:13:59;97331.25;;;2.77;100.00
49841;BME280;35738;49.890;5.930;2023-02-14T05:16:26;97328.22;;;2.74;100.00
49841;BME280;35738;49.890;5.930;2023-02-14T05:18:52;97326.81;;;2.71;100.00
49841;BME280;35738;49.890;5.930;2023-02-14T05:21:19;97322.44;;;2.70;100.00
49841;BME280;35738;49.890;5.930;2023-02-14T05:23:46;97330.59;;;2.70;100.00
49841;BME280;35738;49.890;5.930;2023-02-14T05:26:12;97331.31;;;2.66;100.00
49841;BME280;35738;49.890;5.930;2023-02-14T05:28:39;97337.00;;;2.64;100.00
49841;BME280;35738;49.890;5.930;2023-02-14T05:31:07;97336.81;;;2.54;100.00
49841;BME280;35738;49.890;5.930;2023-02-14T05:33:34;97336.28;;;2.40;100.00
49841;BME280;35738;49.890;5.930;2023-02-14T05:36:00;97332.59;;;2.46;100.00
49841;BME280;35738;49.890;5.930;2023-02-14T05:38:29;97341.91;;;2.50;100.00
49841;BME280;35738;49.890;5.930;2023-02-14T05:40:55;97337.16;;;2.58;100.00
49841;BME280;35738;49.890;5.930;2023-02-14T05:43:22;97346.38;;;2.57;100.00
49841;BME280;35738;49.890;5.930;2023-02-14T05:45:49;97345.28;;;2.58;100.00
49841;BME280;35738;49.890;5.930;2023-02-14T05:48:16;97346.38;;;2.57;100.00
49841;BME280;35738;49.890;5.930;2023-02-14T05:50:42;97342.16;;;2.49;100.00
49841;BME280;35738;49.890;5.930;2023-02-14T05:53:11;97339.22;;;2.39;100.00
49841;BME280;35738;49.890;5.930;2023-02-14T05:55:38;97339.13;;;2.34;100.00
49841;BME280;35738;49.890;5.930;2023-02-14T05:58:05;97343.41;;;2.30;100.00
49841;BME280;35738;49.890;5.930;2023-02-14T06:00:32;97344.94;;;2.26;100.00
49841;BME280;35738;49.890;5.930;2023-02-14T06:03:00;97354.03;;;2.19;100.00
49841;BME280;35738;49.890;5.930;2023-02-14T06:05:26;97342.03;;;2.04;100.00
49841;BME280;35738;49.890;5.930;2023-02-14T06:07:53;97332.38;;;1.96;100.00
49841;BME280;35738;49.890;5.930;2023-02-14T06:10:23;97340.75;;;1.95;100.00
49841;BME280;35738;49.890;5.930;2023-02-14T06:12:51;97339.78;;;2.01;100.00
49841;BME280;35738;49.890;5.930;2023-02-14T06:15:18;97341.19;;;2.03;100.00
49841;BME280;35738;49.890;5.930;2023-02-14T06:17:53;97334.69;;;2.16;100.00
49841;BME280;35738;49.890;5.930;2023-02-14T06:20:20;97338.31;;;2.21;100.00
49841;BME280;35738;49.890;5.930;2023-02-14T06:22:47;97339.75;;;2.24;100.00
49841;BME280;35738;49.890;5.930;2023-02-14T06:25:14;97332.88;;;2.21;100.00
49841;BME280;35738;49.890;5.930;2023-02-14T06:27:41;97340.94;;;2.16;100.00
49841;BME280;35738;49.890;5.930;2023-02-14T06:30:09;97335.16;;;2.13;100.00
49841;BME280;35738;49.890;5.930;2023-02-14T06:32:36;97342.00;;;2.15;100.00
49841;BME280;35738;49.890;5.930;2023-02-14T06:35:02;97338.81;;;2.18;100.00
49841;BME280;35738;49.890;5.930;2023-02-14T06:37:29;97344.56;;;2.22;100.00
49841;BME280;35738;49.890;5.930;2023-02-14T06:39:56;97336.31;;;2.29;100.00
49841;BME280;35738;49.890;5.930;2023-02-14T06:42:22;97343.31;;;2.25;100.00
49841;BME280;35738;49.890;5.930;2023-02-14T06:44:49;97340.44;;;2.19;100.00
49841;BME280;35738;49.890;5.930;2023-02-14T06:47:16;97340.34;;;2.14;100.00
49841;BME280;35738;49.890;5.930;2023-02-14T06:49:42;97334.81;;;2.09;100.00
49841;BME280;35738;49.890;5.930;2023-02-14T06:52:09;97335.06;;;2.08;100.00
49841;BME280;35738;49.890;5.930;2023-02-14T06:54:36;97335.84;;;2.20;100.00
49841;BME280;35738;49.890;5.930;2023-02-14T06:57:02;97331.25;;;2.20;100.00
49841;BME280;35738;49.890;5.930;2023-02-14T06:59:29;97335.97;;;2.25;100.00
49841;BME280;35738;49.890;5.930;2023-02-14T07:01:56;97337.88;;;2.25;100.00
49841;BME280;35738;49.890;5.930;2023-02-14T07:04:22;97340.34;;;2.26;100.00
49841;BME280;35738;49.890;5.930;2023-02-14T07:06:49;97336.31;;;2.29;100.00
49841;BME280;35738;49.890;5.930;2023-02-14T07:09:16;97339.63;;;2.31;100.00
49841;BME280;35738;49.890;5.930;2023-02-14T07:11:44;97334.28;;;2.36;100.00
49841;BME280;35738;49.890;5.930;2023-02-14T07:14:11;97338.06;;;2.35;100.00
49841;BME280;35738;49.890;5.930;2023-02-14T07:16:38;97343.34;;;2.41;100.00
49841;BME280;35738;49.890;5.930;2023-02-14T07:19:05;97341.56;;;2.47;100.00
49841;BME280;35738;49.890;5.930;2023-02-14T07:21:31;97340.84;;;2.51;100.00
49841;BME280;35738;49.890;5.930;2023-02-14T07:23:59;97333.28;;;2.53;100.00
49841;BME280;35738;49.890;5.930;2023-02-14T07:26:26;97345.28;;;2.58;100.00
49841;BME280;35738;49.890;5.930;2023-02-14T07:28:52;97334.88;;;2.66;100.00
49841;BME280;35738;49.890;5.930;2023-02-14T07:31:19;97331.66;;;2.69;100.00
49841;BME280;35738;49.890;5.930;2023-02-14T07:33:49;97336.69;;;2.77;100.00
49841;BME280;35738;49.890;5.930;2023-02-14T07:36:17;97347.16;;;2.85;100.00
49841;BME280;35738;49.890;5.930;2023-02-14T07:38:43;97351.88;;;2.90;100.00
49841;BME280;35738;49.890;5.930;2023-02-14T07:41:10;97339.06;;;3.02;100.00
49841;BME280;35738;49.890;5.930;2023-02-14T07:43:37;97345.66;;;3.06;100.00
49841;BME280;35738;49.890;5.930;2023-02-14T07:46:05;97335.94;;;3.10;100.00
49841;BME280;35738;49.890;5.930;2023-02-14T07:48:32;97340.72;;;3.20;100.00
49841;BME280;35738;49.890;5.930;2023-02-14T07:51:00;97339.06;;;3.19;100.00
49841;BME280;35738;49.890;5.930;2023-02-14T07:53:27;97344.59;;;3.24;100.00
49841;BME280;35738;49.890;5.930;2023-02-14T07:55:54;97338.75;;;3.32;100.00
49841;BME280;35738;49.890;5.930;2023-02-14T07:58:20;97336.53;;;3.29;100.00
49841;BME280;35738;49.890;5.930;2023-02-14T08:00:47;97332.88;;;3.40;100.00
49841;BME280;35738;49.890;5.930;2023-02-14T08:03:14;97328.09;;;3.47;100.00
49841;BME280;35738;49.890;5.930;2023-02-14T08:05:41;97328.00;;;3.59;100.00
49841;BME280;35738;49.890;5.930;2023-02-14T08:08:08;97326.75;;;3.67;100.00
49841;BME280;35738;49.890;5.930;2023-02-14T08:10:35;97323.19;;;3.83;100.00
49841;BME280;35738;49.890;5.930;2023-02-14T08:13:01;97325.34;;;3.81;100.00
49841;BME280;35738;49.890;5.930;2023-02-14T08:15:33;97324.66;;;3.91;100.00
49841;BME280;35738;49.890;5.930;2023-02-14T08:18:20;97322.34;;;3.99;100.00
49841;BME280;35738;49.890;5.930;2023-02-14T08:20:51;97318.03;;;4.03;100.00
49841;BME280;35738;49.890;5.930;2023-02-14T08:23:19;97326.25;;;4.08;100.00
49841;BME280;35738;49.890;5.930;2023-02-14T08:25:50;97330.00;;;4.02;100.00
49841;BME280;35738;49.890;5.930;2023-02-14T08:28:18;97327.47;;;4.18;99.35
49841;BME280;35738;49.890;5.930;2023-02-14T08:30:47;97331.31;;;4.22;98.94
49841;BME280;35738;49.890;5.930;2023-02-14T08:33:13;97332.97;;;4.23;98.78
49841;BME280;35738;49.890;5.930;2023-02-14T08:35:40;97343.03;;;4.44;98.95
49841;BME280;35738;49.890;5.930;2023-02-14T08:38:07;97336.38;;;4.35;98.19
49841;BME280;35738;49.890;5.930;2023-02-14T08:40:33;97326.69;;;4.44;97.42
49841;BME280;35738;49.890;5.930;2023-02-14T08:43:04;97336.97;;;4.59;97.24
49841;BME280;35738;49.890;5.930;2023-02-14T08:45:31;97339.53;;;4.70;96.83
49841;BME280;35738;49.890;5.930;2023-02-14T08:48:02;97334.59;;;4.67;96.06
49841;BME280;35738;49.890;5.930;2023-02-14T08:50:29;97336.25;;;4.68;95.96
49841;BME280;35738;49.890;5.930;2023-02-14T08:52:56;97346.63;;;4.71;95.03
49841;BME280;35738;49.890;5.930;2023-02-14T08:55:23;97337.63;;;4.71;95.03
49841;BME280;35738;49.890;5.930;2023-02-14T08:57:49;97338.63;;;4.87;94.84
49841;BME280;35738;49.890;5.930;2023-02-14T09:00:16;97337.03;;;4.91;94.86
49841;BME280;35738;49.890;5.930;2023-02-14T09:02:43;97334.84;;;4.93;94.72
49841;BME280;35738;49.890;5.930;2023-02-14T09:05:10;97340.25;;;4.88;94.41
49841;BME280;35738;49.890;5.930;2023-02-14T09:07:36;97338.00;;;4.79;93.70
49841;BME280;35738;49.890;5.930;2023-02-14T09:10:03;97341.34;;;4.87;93.87
49841;BME280;35738;49.890;5.930;2023-02-14T09:12:30;97337.25;;;5.16;94.25
49841;BME280;35738;49.890;5.930;2023-02-14T09:14:57;97342.34;;;5.07;92.51
49841;BME280;35738;49.890;5.930;2023-02-14T09:17:23;97339.78;;;4.96;92.63
49841;BME280;35738;49.890;5.930;2023-02-14T09:19:50;97342.09;;;5.09;92.61
49841;BME280;35738;49.890;5.930;2023-02-14T09:22:18;97334.53;;;5.16;92.61
49841;BME280;35738;49.890;5.930;2023-02-14T09:24:45;97338.53;;;5.35;91.92
49841;BME280;35738;49.890;5.930;2023-02-14T09:27:12;97340.75;;;5.38;90.75
49841;BME280;35738;49.890;5.930;2023-02-14T09:29:38;97342.38;;;5.39;92.25
49841;BME280;35738;49.890;5.930;2023-02-14T09:32:05;97332.75;;;5.27;91.23
49841;BME280;35738;49.890;5.930;2023-02-14T09:34:33;97338.03;;;5.38;91.64
49841;BME280;35738;49.890;5.930;2023-02-14T09:37:00;97335.31;;;5.43;90.97
49841;BME280;35738;49.890;5.930;2023-02-14T09:39:26;97343.03;;;5.52;90.30
49841;BME280;35738;49.890;5.930;2023-02-14T09:44:42;97340.97;;;5.69;88.80
49841;BME280;35738;49.890;5.930;2023-02-14T09:47:26;97336.34;;;5.69;89.01
49841;BME280;35738;49.890;5.930;2023-02-14T09:49:57;97342.13;;;5.78;89.30
49841;BME280;35738;49.890;5.930;2023-02-14T09:52:26;97339.94;;;5.80;89.37
49841;BME280;35738;49.890;5.930;2023-02-14T09:54:58;97341.69;;;5.91;90.09
49841;BME280;35738;49.890;5.930;2023-02-14T09:57:38;97341.63;;;5.86;87.98
49841;BME280;35738;49.890;5.930;2023-02-14T10:05:53;97342.16;;;6.25;87.75
49841;BME280;35738;49.890;5.930;2023-02-14T10:11:22;97342.91;;;6.11;86.26
49841;BME280;35738;49.890;5.930;2023-02-14T10:14:01;97339.44;;;6.25;86.34
49841;BME280;35738;49.890;5.930;2023-02-14T10:16:35;97334.34;;;6.54;85.60
49841;BME280;35738;49.890;5.930;2023-02-14T10:19:15;97331.69;;;6.69;85.40
49841;BME280;35738;49.890;5.930;2023-02-14T10:21:51;97334.22;;;6.86;85.38
49841;BME280;35738;49.890;5.930;2023-02-14T10:24:57;97336.09;;;6.71;83.31
49841;BME280;35738;49.890;5.930;2023-02-14T10:27:39;97333.22;;;6.45;85.14
49841;BME280;35738;49.890;5.930;2023-02-14T10:30:21;97331.44;;;6.71;83.52
49841;BME280;35738;49.890;5.930;2023-02-14T10:32:58;97336.66;;;6.83;83.86
49841;BME280;35738;49.890;5.930;2023-02-14T10:47:18;97334.78;;;7.09;80.02
49841;BME280;35738;49.890;5.930;2023-02-14T10:54:59;97326.06;;;7.42;79.60
49841;BME280;35738;49.890;5.930;2023-02-14T10:57:34;97329.06;;;7.41;76.88
49841;BME280;35738;49.890;5.930;2023-02-14T11:00:07;97326.88;;;7.32;77.97
49841;BME280;35738;49.890;5.930;2023-02-14T11:02:44;97324.16;;;7.68;77.01
49841;BME280;35738;49.890;5.930;2023-02-14T11:05:27;97320.59;;;7.52;76.74
49841;BME280;35738;49.890;5.930;2023-02-14T11:07:56;97315.38;;;7.66;78.10
49841;BME280;35738;49.890;5.930;2023-02-14T11:10:31;97309.38;;;7.64;75.72
49841;BME280;35738;49.890;5.930;2023-02-14T11:12:58;97308.81;;;7.62;75.26
49841;BME280;35738;49.890;5.930;2023-02-14T11:15:29;97305.78;;;7.84;77.43
49841;BME280;35738;49.890;5.930;2023-02-14T11:18:23;97293.16;;;7.88;76.84
49841;BME280;35738;49.890;5.930;2023-02-14T11:21:19;97287.09;;;8.01;76.41
49841;BME280;35738;49.890;5.930;2023-02-14T11:23:50;97285.69;;;8.19;74.70
49841;BME280;35738;49.890;5.930;2023-02-14T11:28:54;97282.91;;;8.29;74.16
49841;BME280;35738;49.890;5.930;2023-02-14T11:31:40;97277.47;;;8.14;74.09
49841;BME280;35738;49.890;5.930;2023-02-14T11:34:32;97274.69;;;8.39;74.08
49841;BME280;35738;49.890;5.930;2023-02-14T11:37:03;97269.47;;;8.33;72.28
49841;BME280;35738;49.890;5.930;2023-02-14T11:39:41;97273.34;;;8.21;70.80
49841;BME280;35738;49.890;5.930;2023-02-14T11:42:11;97263.97;;;8.43;72.03
49841;BME280;35738;49.890;5.930;2023-02-14T11:44:53;97276.75;;;8.63;72.74
49841;BME280;35738;49.890;5.930;2023-02-14T11:47:27;97258.94;;;8.60;71.25
49841;BME280;35738;49.890;5.930;2023-02-14T11:50:21;97254.78;;;8.68;69.52
49841;BME280;35738;49.890;5.930;2023-02-14T11:52:53;97257.16;;;8.79;70.06
49841;BME280;35738;49.890;5.930;2023-02-14T11:55:32;97251.09;;;8.38;69.87
49841;BME280;35738;49.890;5.930;2023-02-14T11:58:02;97246.72;;;8.32;68.22
49841;BME280;35738;49.890;5.930;2023-02-14T12:00:31;97246.41;;;8.44;69.65
49841;BME280;35738;49.890;5.930;2023-02-14T12:03:01;97243.31;;;8.60;69.08
49841;BME280;35738;49.890;5.930;2023-02-14T12:05:45;97231.97;;;8.23;70.36
49841;BME280;35738;49.890;5.930;2023-02-14T12:08:14;97230.78;;;8.44;71.57
49841;BME280;35738;49.890;5.930;2023-02-14T12:10:41;97226.47;;;8.77;71.90
49841;BME280;35738;49.890;5.930;2023-02-14T12:20:39;97205.06;;;9.13;69.80
49841;BME280;35738;49.890;5.930;2023-02-14T12:23:17;97205.91;;;9.14;68.63
49841;BME280;35738;49.890;5.930;2023-02-14T12:25:54;97208.25;;;8.52;67.03
49841;BME280;35738;49.890;5.930;2023-02-14T12:28:27;97205.78;;;8.95;68.35
49841;BME280;35738;49.890;5.930;2023-02-14T12:30:57;97201.94;;;8.91;68.15
49841;BME280;35738;49.890;5.930;2023-02-14T12:33:24;97189.53;;;8.65;68.19
49841;BME280;35738;49.890;5.930;2023-02-14T12:38:54;97194.38;;;8.28;67.32
49841;BME280;35738;49.890;5.930;2023-02-14T12:41:31;97185.22;;;8.53;67.01
49841;BME280;35738;49.890;5.930;2023-02-14T12:44:07;97194.44;;;8.68;67.31
49841;BME280;35738;49.890;5.930;2023-02-14T12:47:00;97191.53;;;8.93;66.77
49841;BME280;35738;49.890;5.930;2023-02-14T12:52:10;97182.84;;;9.15;65.99
49841;BME280;35738;49.890;5.930;2023-02-14T13:10:51;97143.63;;;8.75;67.68
49841;BME280;35738;49.890;5.930;2023-02-14T13:21:30;97125.13;;;8.91;68.09
49841;BME280;35738;49.890;5.930;2023-02-14T13:24:22;97129.34;;;9.12;66.94
49841;BME280;35738;49.890;5.930;2023-02-14T13:26:55;97124.69;;;8.79;67.06
49841;BME280;35738;49.890;5.930;2023-02-14T13:29:42;97121.84;;;8.89;66.57
49841;BME280;35738;49.890;5.930;2023-02-14T13:32:12;97104.81;;;9.21;66.17
49841;BME280;35738;49.890;5.930;2023-02-14T13:34:44;97115.88;;;9.40;65.41
49841;BME280;35738;49.890;5.930;2023-02-14T13:37:20;97112.50;;;8.90;64.20
49841;BME280;35738;49.890;5.930;2023-02-14T13:39:57;97108.59;;;9.01;66.03
49841;BME280;35738;49.890;5.930;2023-02-14T13:50:48;97122.84;;;9.80;63.76
49841;BME280;35738;49.890;5.930;2023-02-14T13:53:39;97107.28;;;9.22;63.12
49841;BME280;35738;49.890;5.930;2023-02-14T13:59:20;97107.88;;;9.67;62.80
49841;BME280;35738;49.890;5.930;2023-02-14T14:01:49;97105.66;;;9.69;64.43
49841;BME280;35738;49.890;5.930;2023-02-14T14:17:34;97100.19;;;9.88;60.38
49841;BME280;35738;49.890;5.930;2023-02-14T14:20:29;97092.09;;;9.78;60.11
49841;BME280;35738;49.890;5.930;2023-02-14T14:22:53;97093.16;;;9.34;61.09
49841;BME280;35738;49.890;5.930;2023-02-14T14:44:15;97084.38;;;9.80;62.12
49841;BME280;35738;49.890;5.930;2023-02-14T14:46:43;97083.78;;;9.59;61.77
49841;BME280;35738;49.890;5.930;2023-02-14T14:49:10;97087.25;;;9.70;62.03
49841;BME280;35738;49.890;5.930;2023-02-14T14:51:38;97078.78;;;9.42;63.41
49841;BME280;35738;49.890;5.930;2023-02-14T14:56:48;97079.25;;;9.26;63.94
49841;BME280;35738;49.890;5.930;2023-02-14T14:59:19;97081.50;;;9.18;63.00
49841;BME280;35738;49.890;5.930;2023-02-14T15:01:52;97076.22;;;9.27;63.71
49841;BME280;35738;49.890;5.930;2023-02-14T15:04:27;97072.91;;;9.01;64.04
49841;BME280;35738;49.890;5.930;2023-02-14T15:06:56;97069.66;;;8.99;64.52
49841;BME280;35738;49.890;5.930;2023-02-14T15:09:29;97071.91;;;8.92;64.69
49841;BME280;35738;49.890;5.930;2023-02-14T15:11:58;97074.91;;;8.96;65.32
49841;BME280;35738;49.890;5.930;2023-02-14T15:14:48;97073.56;;;8.88;65.14
49841;BME280;35738;49.890;5.930;2023-02-14T15:17:30;97075.22;;;8.89;66.49
49841;BME280;35738;49.890;5.930;2023-02-14T15:20:01;97069.19;;;8.87;67.10
49841;BME280;35738;49.890;5.930;2023-02-14T15:25:09;97069.91;;;8.69;67.35
49841;BME280;35738;49.890;5.930;2023-02-14T15:27:39;97068.28;;;8.68;66.67
49841;BME280;35738;49.890;5.930;2023-02-14T15:32:49;97068.66;;;8.85;67.23
49841;BME280;35738;49.890;5.930;2023-02-14T15:35:22;97075.34;;;8.74;68.17
49841;BME280;35738;49.890;5.930;2023-02-14T15:37:50;97078.63;;;8.76;67.62
49841;BME280;35738;49.890;5.930;2023-02-14T15:40:21;97070.97;;;8.73;67.63
49841;BME280;35738;49.890;5.930;2023-02-14T15:42:49;97072.66;;;8.69;67.62
49841;BME280;35738;49.890;5.930;2023-02-14T15:47:58;97076.13;;;8.50;68.31
49841;BME280;35738;49.890;5.930;2023-02-14T15:50:29;97078.28;;;8.53;68.84
49841;BME280;35738;49.890;5.930;2023-02-14T15:53:06;97079.38;;;8.52;68.61
49841;BME280;35738;49.890;5.930;2023-02-14T15:55:34;97076.16;;;8.45;68.42
49841;BME280;35738;49.890;5.930;2023-02-14T15:58:05;97069.31;;;8.43;68.76
49841;BME280;35738;49.890;5.930;2023-02-14T16:00:34;97072.63;;;8.40;69.27
49841;BME280;35738;49.890;5.930;2023-02-14T16:03:04;97070.75;;;8.35;69.99
49841;BME280;35738;49.890;5.930;2023-02-14T16:05:35;97078.69;;;8.37;69.99